sensor_id;sensor_type;location;lat;lon;timestamp;pressure;altitude;pressure_sealevel;temperature;humidity
74542;BME280;63015;45.378;20.360;2023-05-10T00:01:15;100976.03;;;10.51;69.17
74542;BME280;63015;45.378;20.360;2023-05-10T00:03:16;100974.31;;;10.55;69.38
74542;BME280;63015;45.378;20.360;2023-05-10T00:05:17;100961.28;;;10.51;69.51
74542;BME280;63015;45.378;20.360;2023-05-10T00:07:17;100960.38;;;10.51;69.41
74542;BME280;63015;45.378;20.360;2023-05-10T00:09:18;100967.34;;;10.47;69.80
74542;BME280;63015;45.378;20.360;2023-05-10T00:11:19;100967.28;;;10.44;69.99
74542;BME280;63015;45.378;20.360;2023-05-10T00:13:20;100965.59;;;10.49;69.51
74542;BME280;63015;45.378;20.360;2023-05-10T00:15:21;100962.13;;;10.47;69.60
74542;BME280;63015;45.378;20.360;2023-05-10T00:17:21;100958.63;;;10.44;69.67
74542;BME280;63015;45.378;20.360;2023-05-10T00:19:22;100952.56;;;10.46;69.64
74542;BME280;63015;45.378;20.360;2023-05-10T00:21:22;100953.38;;;10.41;69.77
74542;BME280;63015;45.378;20.360;2023-05-10T00:23:23;100951.66;;;10.43;69.66
74542;BME280;63015;45.378;20.360;2023-05-10T00:25:24;100952.50;;;10.43;69.63
74542;BME280;63015;45.378;20.360;2023-05-10T00:27:24;100943.00;;;10.45;69.65
74542;BME280;63015;45.378;20.360;2023-05-10T00:29:25;100943.84;;;10.44;69.59
74542;BME280;63015;45.378;20.360;2023-05-10T00:31:26;100934.31;;;10.45;69.48
74542;BME280;63015;45.378;20.360;2023-05-10T00:33:26;100933.44;;;10.46;69.47
74542;BME280;63015;45.378;20.360;2023-05-10T00:35:27;100925.66;;;10.47;69.21
74542;BME280;63015;45.378;20.360;2023-05-10T00:37:27;100927.34;;;10.44;69.56
74542;BME280;63015;45.378;20.360;2023-05-10T00:39:29;100926.50;;;10.49;69.16
74542;BME280;63015;45.378;20.360;2023-05-10T00:41:30;100918.69;;;10.48;69.18
74542;BME280;63015;45.378;20.360;2023-05-10T00:43:33;100923.00;;;10.43;69.41
74542;BME280;63015;45.378;20.360;2023-05-10T00:45:35;100923.00;;;10.44;69.23
74542;BME280;63015;45.378;20.360;2023-05-10T00:47:37;100924.75;;;10.44;69.11
74542;BME280;63015;45.378;20.360;2023-05-10T00:49:38;100924.78;;;10.50;68.92
74542;BME280;63015;45.378;20.360;2023-05-10T00:51:39;100918.63;;;10.40;69.11
74542;BME280;63015;45.378;20.360;2023-05-10T00:53:40;100923.00;;;10.44;69.16
74542;BME280;63015;45.378;20.360;2023-05-10T00:55:41;100930.81;;;10.43;69.17
74542;BME280;63015;45.378;20.360;2023-05-10T00:57:42;100917.78;;;10.43;68.98
74542;BME280;63015;45.378;20.360;2023-05-10T00:59:43;100924.75;;;10.42;69.01
74542;BME280;63015;45.378;20.360;2023-05-10T01:01:45;100919.53;;;10.47;68.79
74542;BME280;63015;45.378;20.360;2023-05-10T01:03:46;100912.56;;;10.41;68.99
74542;BME280;63015;45.378;20.360;2023-05-10T01:05:47;100909.13;;;10.44;68.92
74542;BME280;63015;45.378;20.360;2023-05-10T01:07:47;100914.31;;;10.45;68.74
74542;BME280;63015;45.378;20.360;2023-05-10T01:09:48;100918.63;;;10.43;68.90
74542;BME280;63015;45.378;20.360;2023-05-10T01:11:49;100909.09;;;10.42;68.98
74542;BME280;63015;45.378;20.360;2023-05-10T01:13:55;100914.34;;;10.47;68.75
74542;BME280;63015;45.378;20.360;2023-05-10T01:15:57;100914.34;;;10.47;68.73
74542;BME280;63015;45.378;20.360;2023-05-10T01:17:59;100905.66;;;10.46;68.65
74542;BME280;63015;45.378;20.360;2023-05-10T01:20:00;100897.88;;;10.52;68.31
74542;BME280;63015;45.378;20.360;2023-05-10T01:22:25;100893.53;;;10.55;68.44
74542;BME280;63015;45.378;20.360;2023-05-10T01:27:28;100891.72;;;10.41;68.55
74542;BME280;63015;45.378;20.360;2023-05-10T01:34:25;100892.50;;;10.32;68.64
74542;BME280;63015;45.378;20.360;2023-05-10T01:36:39;100892.41;;;10.23;68.96
74542;BME280;63015;45.378;20.360;2023-05-10T01:39:14;100896.69;;;10.15;69.40
74542;BME280;63015;45.378;20.360;2023-05-10T01:43:26;100891.41;;;10.06;69.88
74542;BME280;63015;45.378;20.360;2023-05-10T01:45:41;100878.44;;;10.10;69.63
74542;BME280;63015;45.378;20.360;2023-05-10T01:47:46;100880.13;;;10.08;69.59
74542;BME280;63015;45.378;20.360;2023-05-10T01:49:53;100886.25;;;10.12;69.23
74542;BME280;63015;45.378;20.360;2023-05-10T01:52:00;100875.84;;;10.12;69.13
74542;BME280;63015;45.378;20.360;2023-05-10T01:54:05;100875.00;;;10.16;69.05
74542;BME280;63015;45.378;20.360;2023-05-10T01:56:07;100877.56;;;10.11;69.24
74542;BME280;63015;45.378;20.360;2023-05-10T01:58:37;100877.53;;;10.08;69.45
74542;BME280;63015;45.378;20.360;2023-05-10T02:00:43;100881.84;;;10.04;69.30
74542;BME280;63015;45.378;20.360;2023-05-10T02:02:46;100883.53;;;9.98;69.49
74542;BME280;63015;45.378;20.360;2023-05-10T02:04:49;100876.53;;;9.92;69.55
74542;BME280;63015;45.378;20.360;2023-05-10T02:06:51;100879.13;;;9.91;69.92
74542;BME280;63015;45.378;20.360;2023-05-10T02:08:54;100879.13;;;9.91;69.72
74542;BME280;63015;45.378;20.360;2023-05-10T02:10:56;100879.09;;;9.89;69.80
74542;BME280;63015;45.378;20.360;2023-05-10T02:12:59;100877.38;;;9.90;69.73
74542;BME280;63015;45.378;20.360;2023-05-10T02:15:02;100868.66;;;9.84;69.96
74542;BME280;63015;45.378;20.360;2023-05-10T02:17:05;100870.34;;;9.81;70.34
74542;BME280;63015;45.378;20.360;2023-05-10T02:19:07;100864.22;;;9.76;70.35
74542;BME280;63015;45.378;20.360;2023-05-10T02:21:10;100862.50;;;9.76;70.21
74542;BME280;63015;45.378;20.360;2023-05-10T02:23:13;100861.63;;;9.74;70.48
74542;BME280;63015;45.378;20.360;2023-05-10T02:25:17;100859.03;;;9.74;70.77
74542;BME280;63015;45.378;20.360;2023-05-10T02:27:18;100866.00;;;9.80;70.49
74542;BME280;63015;45.378;20.360;2023-05-10T02:29:20;100848.69;;;9.83;70.55
74542;BME280;63015;45.378;20.360;2023-05-10T02:31:23;100858.16;;;9.75;71.54
74542;BME280;63015;45.378;20.360;2023-05-10T02:33:24;100850.38;;;9.80;70.91
74542;BME280;63015;45.378;20.360;2023-05-10T02:35:27;100844.31;;;9.79;71.06
74542;BME280;63015;45.378;20.360;2023-05-10T02:37:28;100846.03;;;9.77;71.02
74542;BME280;63015;45.378;20.360;2023-05-10T02:39:31;100846.91;;;9.78;71.12
74542;BME280;63015;45.378;20.360;2023-05-10T02:41:32;100847.78;;;9.80;70.99
74542;BME280;63015;45.378;20.360;2023-05-10T02:43:34;100852.19;;;9.85;70.63
74542;BME280;63015;45.378;20.360;2023-05-10T02:45:36;100841.72;;;9.82;70.83
74542;BME280;63015;45.378;20.360;2023-05-10T02:47:39;100841.72;;;9.78;71.12
74542;BME280;63015;45.378;20.360;2023-05-10T02:49:39;100839.97;;;9.80;70.80
74542;BME280;63015;45.378;20.360;2023-05-10T02:51:49;100840.88;;;9.82;70.69
74542;BME280;63015;45.378;20.360;2023-05-10T02:53:51;100849.53;;;9.81;70.72
74542;BME280;63015;45.378;20.360;2023-05-10T02:55:58;100848.56;;;9.71;71.41
74542;BME280;63015;45.378;20.360;2023-05-10T02:58:01;100841.66;;;9.75;71.22
74542;BME280;63015;45.378;20.360;2023-05-10T03:00:03;100846.03;;;9.77;71.05
74542;BME280;63015;45.378;20.360;2023-05-10T03:02:04;100844.31;;;9.78;70.81
74542;BME280;63015;45.378;20.360;2023-05-10T03:04:05;100844.34;;;9.82;70.46
74542;BME280;63015;45.378;20.360;2023-05-10T03:06:06;100842.63;;;9.83;70.22
74542;BME280;63015;45.378;20.360;2023-05-10T03:08:07;100846.06;;;9.82;70.93
74542;BME280;63015;45.378;20.360;2023-05-10T03:10:09;100842.59;;;9.81;70.54
74542;BME280;63015;45.378;20.360;2023-05-10T03:14:57;100838.28;;;9.83;70.56
74542;BME280;63015;45.378;20.360;2023-05-10T03:17:06;100832.22;;;9.89;70.01
74542;BME280;63015;45.378;20.360;2023-05-10T03:19:22;100841.75;;;9.84;70.43
74542;BME280;63015;45.378;20.360;2023-05-10T03:21:28;100836.59;;;9.92;70.14
74542;BME280;63015;45.378;20.360;2023-05-10T03:23:35;100836.56;;;9.87;70.22
74542;BME280;63015;45.378;20.360;2023-05-10T03:25:37;100845.25;;;9.87;70.12
74542;BME280;63015;45.378;20.360;2023-05-10T03:27:41;100835.75;;;9.94;69.78
74542;BME280;63015;45.378;20.360;2023-05-10T03:29:44;100838.34;;;9.93;69.76
74542;BME280;63015;45.378;20.360;2023-05-10T03:31:47;100840.03;;;9.89;69.99
74542;BME280;63015;45.378;20.360;2023-05-10T03:33:50;100835.66;;;9.82;70.24
74542;BME280;63015;45.378;20.360;2023-05-10T03:35:56;100829.63;;;9.87;70.02
74542;BME280;63015;45.378;20.360;2023-05-10T03:37:57;100834.91;;;9.95;69.93
74542;BME280;63015;45.378;20.360;2023-05-10T03:39:57;100838.47;;;10.07;69.54
74542;BME280;63015;45.378;20.360;2023-05-10T03:41:58;100838.47;;;10.05;69.63
74542;BME280;63015;45.378;20.360;2023-05-10T03:43:59;100832.41;;;10.12;69.27
74542;BME280;63015;45.378;20.360;2023-05-10T03:46:04;100827.25;;;10.18;69.13
74542;BME280;63015;45.378;20.360;2023-05-10T03:48:05;100827.31;;;10.23;69.03
74542;BME280;63015;45.378;20.360;2023-05-10T03:50:06;100828.16;;;10.19;69.12
74542;BME280;63015;45.378;20.360;2023-05-10T03:52:07;100831.66;;;10.27;68.70
74542;BME280;63015;45.378;20.360;2023-05-10T03:54:09;100829.06;;;10.29;68.62
74542;BME280;63015;45.378;20.360;2023-05-10T03:56:09;100843.00;;;10.31;68.59
74542;BME280;63015;45.378;20.360;2023-05-10T03:58:11;100835.16;;;10.29;68.63
74542;BME280;63015;45.378;20.360;2023-05-10T04:00:12;100834.25;;;10.24;68.71
74542;BME280;63015;45.378;20.360;2023-05-10T04:02:16;100840.34;;;10.25;68.73
74542;BME280;63015;45.378;20.360;2023-05-10T04:04:16;100836.88;;;10.30;68.56
74542;BME280;63015;45.378;20.360;2023-05-10T04:06:18;100844.75;;;10.35;68.42
74542;BME280;63015;45.378;20.360;2023-05-10T04:08:19;100835.25;;;10.40;67.99
74542;BME280;63015;45.378;20.360;2023-05-10T04:10:20;100839.56;;;10.36;68.02
74542;BME280;63015;45.378;20.360;2023-05-10T04:12:21;100839.56;;;10.36;68.06
74542;BME280;63015;45.378;20.360;2023-05-10T04:14:22;100850.75;;;10.28;68.25
74542;BME280;63015;45.378;20.360;2023-05-10T04:16:22;100845.59;;;10.31;68.13
74542;BME280;63015;45.378;20.360;2023-05-10T04:18:23;100840.34;;;10.28;68.24
74542;BME280;63015;45.378;20.360;2023-05-10T04:20:23;100854.25;;;10.27;68.29
74542;BME280;63015;45.378;20.360;2023-05-10T04:22:24;100851.66;;;10.28;68.21
74542;BME280;63015;45.378;20.360;2023-05-10T04:24:25;100852.50;;;10.30;68.43
74542;BME280;63015;45.378;20.360;2023-05-10T04:26:26;100851.59;;;10.24;68.24
74542;BME280;63015;45.378;20.360;2023-05-10T04:28:26;100862.06;;;10.30;68.17
74542;BME280;63015;45.378;20.360;2023-05-10T04:30:27;100858.66;;;10.35;68.09
74542;BME280;63015;45.378;20.360;2023-05-10T04:32:29;100856.00;;;10.32;68.27
74542;BME280;63015;45.378;20.360;2023-05-10T04:34:30;100858.63;;;10.32;68.41
74542;BME280;63015;45.378;20.360;2023-05-10T04:36:30;100863.06;;;10.43;68.31
74542;BME280;63015;45.378;20.360;2023-05-10T04:38:32;100866.53;;;10.43;68.46
74542;BME280;63015;45.378;20.360;2023-05-10T04:40:33;100871.78;;;10.51;68.28
74542;BME280;63015;45.378;20.360;2023-05-10T04:42:34;100857.94;;;10.58;68.05
74542;BME280;63015;45.378;20.360;2023-05-10T04:44:35;100865.81;;;10.66;68.08
74542;BME280;63015;45.378;20.360;2023-05-10T04:46:36;100858.03;;;10.74;67.75
74542;BME280;63015;45.378;20.360;2023-05-10T04:48:37;100852.94;;;10.94;67.81
74542;BME280;63015;45.378;20.360;2023-05-10T04:50:39;100858.25;;;11.17;67.46
74542;BME280;63015;45.378;20.360;2023-05-10T04:52:39;100857.44;;;11.46;66.26
74542;BME280;63015;45.378;20.360;2023-05-10T04:54:40;100854.88;;;11.58;66.34
74542;BME280;63015;45.378;20.360;2023-05-10T04:56:40;100860.13;;;11.89;65.64
74542;BME280;63015;45.378;20.360;2023-05-10T04:58:41;100851.44;;;12.12;65.27
74542;BME280;63015;45.378;20.360;2023-05-10T05:00:41;100845.31;;;12.44;64.00
74542;BME280;63015;45.378;20.360;2023-05-10T05:02:43;100854.88;;;12.65;63.72
74542;BME280;63015;45.378;20.360;2023-05-10T05:04:45;100851.34;;;12.71;62.99
74542;BME280;63015;45.378;20.360;2023-05-10T05:06:46;100844.31;;;12.87;62.81
74542;BME280;63015;45.378;20.360;2023-05-10T05:08:46;100844.31;;;12.96;62.78
74542;BME280;63015;45.378;20.360;2023-05-10T05:10:48;100844.25;;;13.05;62.66
74542;BME280;63015;45.378;20.360;2023-05-10T05:12:50;100842.44;;;13.21;62.08
74542;BME280;63015;45.378;20.360;2023-05-10T05:14:50;100834.53;;;13.29;61.32
74542;BME280;63015;45.378;20.360;2023-05-10T05:16:52;100843.34;;;13.14;61.42
74542;BME280;63015;45.378;20.360;2023-05-10T05:18:52;100839.78;;;13.27;61.42
74542;BME280;63015;45.378;20.360;2023-05-10T05:20:53;100844.09;;;13.36;60.63
74542;BME280;63015;45.378;20.360;2023-05-10T05:22:54;100836.25;;;13.36;60.50
74542;BME280;63015;45.378;20.360;2023-05-10T05:24:55;100844.09;;;13.36;60.50
74542;BME280;63015;45.378;20.360;2023-05-10T05:26:56;100844.97;;;13.46;60.83
74542;BME280;63015;45.378;20.360;2023-05-10T05:28:57;100842.31;;;13.49;60.66
74542;BME280;63015;45.378;20.360;2023-05-10T05:30:57;100850.97;;;13.57;59.75
74542;BME280;63015;45.378;20.360;2023-05-10T05:32:58;100846.69;;;13.50;59.57
74542;BME280;63015;45.378;20.360;2023-05-10T05:34:59;100847.56;;;13.44;59.47
74542;BME280;63015;45.378;20.360;2023-05-10T05:36:59;100844.09;;;13.45;59.56
74542;BME280;63015;45.378;20.360;2023-05-10T05:39:00;100840.50;;;13.62;59.40
74542;BME280;63015;45.378;20.360;2023-05-10T05:41:01;100845.75;;;13.59;59.21
74542;BME280;63015;45.378;20.360;2023-05-10T05:43:01;100846.59;;;13.61;58.56
74542;BME280;63015;45.378;20.360;2023-05-10T05:45:02;100839.66;;;13.52;58.56
74542;BME280;63015;45.378;20.360;2023-05-10T05:47:03;100848.25;;;13.76;58.52
74542;BME280;63015;45.378;20.360;2023-05-10T05:49:04;100858.47;;;14.08;58.13
74542;BME280;63015;45.378;20.360;2023-05-10T05:51:05;100850.56;;;14.11;57.58
74542;BME280;63015;45.378;20.360;2023-05-10T05:53:06;100845.19;;;14.28;57.72
74542;BME280;63015;45.378;20.360;2023-05-10T05:55:06;100836.22;;;14.51;57.15
74542;BME280;63015;45.378;20.360;2023-05-10T05:57:07;100844.03;;;14.57;56.56
74542;BME280;63015;45.378;20.360;2023-05-10T05:59:08;100847.28;;;14.83;55.82
74542;BME280;63015;45.378;20.360;2023-05-10T06:01:08;100854.22;;;14.88;55.79
74542;BME280;63015;45.378;20.360;2023-05-10T06:03:09;100851.50;;;14.96;54.75
74542;BME280;63015;45.378;20.360;2023-05-10T06:05:10;100859.31;;;14.99;55.24
74542;BME280;63015;45.378;20.360;2023-05-10T06:07:11;100849.69;;;15.01;54.79
74542;BME280;63015;45.378;20.360;2023-05-10T06:09:12;100873.66;;;14.69;54.82
74542;BME280;63015;45.378;20.360;2023-05-10T06:11:13;100862.44;;;14.51;55.54
74542;BME280;63015;45.378;20.360;2023-05-10T06:13:13;100865.94;;;14.52;55.57
74542;BME280;63015;45.378;20.360;2023-05-10T06:15:14;100860.94;;;14.28;55.45
74542;BME280;63015;45.378;20.360;2023-05-10T06:17:15;100866.16;;;14.27;55.99
74542;BME280;63015;45.378;20.360;2023-05-10T06:19:15;100857.50;;;14.20;56.06
74542;BME280;63015;45.378;20.360;2023-05-10T06:21:16;100860.88;;;14.36;55.87
74542;BME280;63015;45.378;20.360;2023-05-10T06:23:17;100858.38;;;14.22;55.82
74542;BME280;63015;45.378;20.360;2023-05-10T06:25:17;100855.69;;;14.25;55.95
74542;BME280;63015;45.378;20.360;2023-05-10T06:27:18;100858.31;;;14.25;56.11
74542;BME280;63015;45.378;20.360;2023-05-10T06:29:19;100851.44;;;14.13;55.99
74542;BME280;63015;45.378;20.360;2023-05-10T06:31:19;100856.78;;;14.00;56.22
74542;BME280;63015;45.378;20.360;2023-05-10T06:33:20;100850.63;;;14.04;55.96
74542;BME280;63015;45.378;20.360;2023-05-10T06:35:20;100857.56;;;14.16;56.33
74542;BME280;63015;45.378;20.360;2023-05-10T06:37:21;100854.03;;;14.17;56.18
74542;BME280;63015;45.378;20.360;2023-05-10T06:39:22;100860.16;;;14.17;55.85
74542;BME280;63015;45.378;20.360;2023-05-10T06:41:22;100869.53;;;14.40;55.94
74542;BME280;63015;45.378;20.360;2023-05-10T06:43:24;100863.31;;;14.50;55.60
74542;BME280;63015;45.378;20.360;2023-05-10T06:45:25;100855.44;;;14.50;55.48
74542;BME280;63015;45.378;20.360;2023-05-10T06:47:25;100851.28;;;14.34;55.45
74542;BME280;63015;45.378;20.360;2023-05-10T06:49:26;100859.91;;;14.42;55.33
74542;BME280;63015;45.378;20.360;2023-05-10T06:51:26;100851.09;;;14.47;55.20
74542;BME280;63015;45.378;20.360;2023-05-10T06:53:27;100862.34;;;14.65;54.65
74542;BME280;63015;45.378;20.360;2023-05-10T06:55:28;100855.06;;;14.90;54.57
74542;BME280;63015;45.378;20.360;2023-05-10T06:57:29;100854.63;;;15.24;54.22
74542;BME280;63015;45.378;20.360;2023-05-10T06:59:30;100857.53;;;15.67;52.97
74542;BME280;63015;45.378;20.360;2023-05-10T07:01:31;100851.91;;;15.93;52.42
74542;BME280;63015;45.378;20.360;2023-05-10T07:03:31;100856.41;;;15.85;52.25
74542;BME280;63015;45.378;20.360;2023-05-10T07:05:32;100853.50;;;16.02;51.78
74542;BME280;63015;45.378;20.360;2023-05-10T07:07:33;100854.25;;;16.11;51.73
74542;BME280;63015;45.378;20.360;2023-05-10T07:09:33;100854.56;;;15.91;51.42
74542;BME280;63015;45.378;20.360;2023-05-10T07:11:35;100849.44;;;15.81;51.57
74542;BME280;63015;45.378;20.360;2023-05-10T07:13:35;100852.94;;;15.84;51.44
74542;BME280;63015;45.378;20.360;2023-05-10T07:15:36;100853.72;;;15.88;51.24
74542;BME280;63015;45.378;20.360;2023-05-10T07:17:37;100859.38;;;15.61;51.57
74542;BME280;63015;45.378;20.360;2023-05-10T07:19:37;100854.25;;;15.51;51.89
74542;BME280;63015;45.378;20.360;2023-05-10T07:21:38;100850.72;;;15.55;52.15
74542;BME280;63015;45.378;20.360;2023-05-10T07:23:40;100859.44;;;15.55;51.81
74542;BME280;63015;45.378;20.360;2023-05-10T07:25:41;100850.72;;;15.53;51.78
74542;BME280;63015;45.378;20.360;2023-05-10T07:27:41;100852.44;;;15.57;52.24
74542;BME280;63015;45.378;20.360;2023-05-10T07:29:42;100844.44;;;15.63;51.54
74542;BME280;63015;45.378;20.360;2023-05-10T07:31:43;100851.19;;;15.83;51.45
74542;BME280;63015;45.378;20.360;2023-05-10T07:33:43;100847.50;;;15.95;51.41
74542;BME280;63015;45.378;20.360;2023-05-10T07:35:44;100856.91;;;16.10;51.28
74542;BME280;63015;45.378;20.360;2023-05-10T07:37:44;100849.63;;;16.24;50.89
74542;BME280;63015;45.378;20.360;2023-05-10T07:39:45;100844.59;;;16.60;50.07
74542;BME280;63015;45.378;20.360;2023-05-10T07:41:46;100843.19;;;16.86;49.78
74542;BME280;63015;45.378;20.360;2023-05-10T07:43:46;100845.47;;;17.05;49.07
74542;BME280;63015;45.378;20.360;2023-05-10T07:45:47;100849.84;;;17.06;48.89
74542;BME280;63015;45.378;20.360;2023-05-10T07:47:48;100843.25;;;16.85;49.25
74542;BME280;63015;45.378;20.360;2023-05-10T07:49:48;100859.38;;;16.66;49.81
74542;BME280;63015;45.378;20.360;2023-05-10T07:51:49;100843.25;;;16.83;50.08
74542;BME280;63015;45.378;20.360;2023-05-10T07:53:50;100855.44;;;16.90;49.99
74542;BME280;63015;45.378;20.360;2023-05-10T07:55:51;100845.44;;;17.08;49.69
74542;BME280;63015;45.378;20.360;2023-05-10T07:57:54;100847.34;;;17.00;49.57
74542;BME280;63015;45.378;20.360;2023-05-10T07:59:55;100849.44;;;16.81;49.09
74542;BME280;63015;45.378;20.360;2023-05-10T08:01:55;100848.81;;;16.69;49.39
74542;BME280;63015;45.378;20.360;2023-05-10T08:03:56;100843.25;;;16.83;49.47
74542;BME280;63015;45.378;20.360;2023-05-10T08:05:57;100844.94;;;16.86;48.86
74542;BME280;63015;45.378;20.360;2023-05-10T08:07:57;100842.13;;;16.51;48.72
74542;BME280;63015;45.378;20.360;2023-05-10T08:09:59;100840.19;;;16.61;48.87
74542;BME280;63015;45.378;20.360;2023-05-10T08:12:00;100844.78;;;16.51;48.62
74542;BME280;63015;45.378;20.360;2023-05-10T08:14:01;100853.47;;;16.53;48.78
74542;BME280;63015;45.378;20.360;2023-05-10T08:16:01;100845.41;;;16.64;48.67
74542;BME280;63015;45.378;20.360;2023-05-10T08:18:02;100847.84;;;16.73;49.16
74542;BME280;63015;45.378;20.360;2023-05-10T08:20:04;100848.97;;;17.07;48.92
74542;BME280;63015;45.378;20.360;2023-05-10T08:22:05;100848.88;;;17.51;48.39
74542;BME280;63015;45.378;20.360;2023-05-10T08:24:06;100853.56;;;17.38;47.47
74542;BME280;63015;45.378;20.360;2023-05-10T08:26:07;100848.69;;;17.19;47.03
74542;BME280;63015;45.378;20.360;2023-05-10T08:28:08;100839.28;;;17.07;47.42
74542;BME280;63015;45.378;20.360;2023-05-10T08:30:09;100843.34;;;17.22;47.11
74542;BME280;63015;45.378;20.360;2023-05-10T08:32:10;100845.97;;;17.62;46.43
74542;BME280;63015;45.378;20.360;2023-05-10T08:34:11;100836.72;;;17.81;45.84
74542;BME280;63015;45.378;20.360;2023-05-10T08:36:11;100852.28;;;17.94;45.88
74542;BME280;63015;45.378;20.360;2023-05-10T08:38:14;100848.41;;;17.71;45.52
74542;BME280;63015;45.378;20.360;2023-05-10T08:40:15;100851.25;;;18.34;45.34
74542;BME280;63015;45.378;20.360;2023-05-10T08:42:19;100846.31;;;18.54;44.23
74542;BME280;63015;45.378;20.360;2023-05-10T08:44:23;100841.97;;;18.52;43.12
74542;BME280;63015;45.378;20.360;2023-05-10T08:46:23;100836.59;;;18.56;43.34
74542;BME280;63015;45.378;20.360;2023-05-10T08:48:24;100837.75;;;18.46;42.72
74542;BME280;63015;45.378;20.360;2023-05-10T08:50:25;100836.59;;;18.89;41.93
74542;BME280;63015;45.378;20.360;2023-05-10T08:52:26;100837.53;;;19.17;41.35
74542;BME280;63015;45.378;20.360;2023-05-10T08:54:28;100822.47;;;19.20;40.99
74542;BME280;63015;45.378;20.360;2023-05-10T08:56:30;100829.16;;;19.32;40.42
74542;BME280;63015;45.378;20.360;2023-05-10T08:58:31;100835.44;;;19.57;39.51
74542;BME280;63015;45.378;20.360;2023-05-10T09:00:32;100839.59;;;19.64;39.17
74542;BME280;63015;45.378;20.360;2023-05-10T09:02:34;100826.69;;;19.54;39.66
74542;BME280;63015;45.378;20.360;2023-05-10T09:04:35;100832.31;;;19.44;39.72
74542;BME280;63015;45.378;20.360;2023-05-10T09:06:36;100824.94;;;19.53;40.19
74542;BME280;63015;45.378;20.360;2023-05-10T09:08:37;100825.94;;;19.78;39.85
74542;BME280;63015;45.378;20.360;2023-05-10T09:10:39;100827.59;;;19.53;38.90
74542;BME280;63015;45.378;20.360;2023-05-10T09:12:40;100814.31;;;19.57;38.74
74542;BME280;63015;45.378;20.360;2023-05-10T09:14:42;100823.34;;;19.76;38.62
74542;BME280;63015;45.378;20.360;2023-05-10T09:16:45;100807.81;;;19.94;37.97
74542;BME280;63015;45.378;20.360;2023-05-10T09:18:45;100815.75;;;19.94;37.87
74542;BME280;63015;45.378;20.360;2023-05-10T09:20:46;100817.91;;;20.08;38.44
74542;BME280;63015;45.378;20.360;2023-05-10T09:22:47;100813.59;;;20.05;38.58
74542;BME280;63015;45.378;20.360;2023-05-10T09:24:47;100810.75;;;20.36;38.54
74542;BME280;63015;45.378;20.360;2023-05-10T09:26:48;100815.63;;;20.24;38.07
74542;BME280;63015;45.378;20.360;2023-05-10T09:28:51;100817.06;;;20.07;38.37
74542;BME280;63015;45.378;20.360;2023-05-10T09:30:53;100813.00;;;19.97;38.42
74542;BME280;63015;45.378;20.360;2023-05-10T09:32:57;100808.06;;;19.86;38.91
74542;BME280;63015;45.378;20.360;2023-05-10T09:35:14;100811.09;;;19.74;38.67
74542;BME280;63015;45.378;20.360;2023-05-10T09:37:15;100815.03;;;19.60;38.71
74542;BME280;63015;45.378;20.360;2023-05-10T09:39:16;100804.59;;;19.57;38.42
74542;BME280;63015;45.378;20.360;2023-05-10T09:41:23;100802.16;;;19.78;37.97
74542;BME280;63015;45.378;20.360;2023-05-10T09:43:25;100796.41;;;20.18;38.32
74542;BME280;63015;45.378;20.360;2023-05-10T09:45:27;100791.47;;;20.08;37.67
74542;BME280;63015;45.378;20.360;2023-05-10T09:47:28;100787.84;;;20.35;38.71
74542;BME280;63015;45.378;20.360;2023-05-10T09:49:29;100779.66;;;20.43;38.03
74542;BME280;63015;45.378;20.360;2023-05-10T09:51:30;100783.41;;;20.61;37.41
74542;BME280;63015;45.378;20.360;2023-05-10T09:53:30;100768.28;;;20.40;37.02
74542;BME280;63015;45.378;20.360;2023-05-10T09:55:42;100768.84;;;20.49;37.47
74542;BME280;63015;45.378;20.360;2023-05-10T09:57:47;100773.09;;;20.53;37.46
74542;BME280;63015;45.378;20.360;2023-05-10T09:59:48;100775.25;;;20.18;37.22
74542;BME280;63015;45.378;20.360;2023-05-10T10:01:50;100793.84;;;20.15;37.80
74542;BME280;63015;45.378;20.360;2023-05-10T10:03:51;100775.25;;;20.17;37.80
74542;BME280;63015;45.378;20.360;2023-05-10T10:05:53;100793.06;;;20.13;38.29
74542;BME280;63015;45.378;20.360;2023-05-10T10:08:00;100786.25;;;20.06;38.37
74542;BME280;63015;45.378;20.360;2023-05-10T10:10:01;100781.69;;;19.84;38.51
74542;BME280;63015;45.378;20.360;2023-05-10T10:12:02;100784.84;;;19.67;38.88
74542;BME280;63015;45.378;20.360;2023-05-10T10:14:04;100778.75;;;19.65;37.76
74542;BME280;63015;45.378;20.360;2023-05-10T10:16:05;100781.28;;;19.97;37.21
74542;BME280;63015;45.378;20.360;2023-05-10T10:18:07;100775.44;;;20.12;37.60
74542;BME280;63015;45.378;20.360;2023-05-10T10:20:12;100768.00;;;20.24;37.26
74542;BME280;63015;45.378;20.360;2023-05-10T10:22:12;100769.81;;;20.21;37.03
74542;BME280;63015;45.378;20.360;2023-05-10T10:24:13;100767.34;;;20.17;37.28
74542;BME280;63015;45.378;20.360;2023-05-10T10:26:15;100770.53;;;20.27;37.04
74542;BME280;63015;45.378;20.360;2023-05-10T10:30:55;100776.25;;;19.89;37.00
74542;BME280;63015;45.378;20.360;2023-05-10T10:35:03;100764.31;;;20.02;37.02
74542;BME280;63015;45.378;20.360;2023-05-10T10:37:05;100762.38;;;20.08;36.96
74542;BME280;63015;45.378;20.360;2023-05-10T10:39:09;100751.19;;;20.25;36.76
74542;BME280;63015;45.378;20.360;2023-05-10T10:41:31;100760.69;;;20.30;36.98
74542;BME280;63015;45.378;20.360;2023-05-10T10:43:32;100754.25;;;20.37;36.36
74542;BME280;63015;45.378;20.360;2023-05-10T10:45:32;100745.41;;;20.62;36.31
74542;BME280;63015;45.378;20.360;2023-05-10T10:47:33;100745.22;;;20.67;36.06